sensor_id;sensor_type;location;lat;lon;timestamp;P1;durP1;ratioP1;P2;durP2;ratioP2
22924;SDS011;11628;51.072;3.712;2023-05-23T00:01:29;59.03;;;28.13;;
22924;SDS011;11628;51.072;3.712;2023-05-23T00:04:01;57.78;;;27.15;;
22924;SDS011;11628;51.072;3.712;2023-05-23T00:06:30;58.85;;;27.77;;
22924;SDS011;11628;51.072;3.712;2023-05-23T00:08:56;61.97;;;29.48;;
22924;SDS011;11628;51.072;3.712;2023-05-23T00:11:22;61.47;;;30.65;;
22924;SDS011;11628;51.072;3.712;2023-05-23T00:13:51;57.10;;;28.60;;
22924;SDS011;11628;51.072;3.712;2023-05-23T00:16:17;60.25;;;31.30;;
22924;SDS011;11628;51.072;3.712;2023-05-23T00:18:43;52.30;;;29.38;;
22924;SDS011;11628;51.072;3.712;2023-05-23T00:21:10;52.60;;;29.27;;
22924;SDS011;11628;51.072;3.712;2023-05-23T00:23:37;54.97;;;27.50;;
22924;SDS011;11628;51.072;3.712;2023-05-23T00:26:06;50.83;;;28.23;;
22924;SDS011;11628;51.072;3.712;2023-05-23T00:28:32;46.97;;;27.05;;
22924;SDS011;11628;51.072;3.712;2023-05-23T00:30:58;45.03;;;26.67;;
22924;SDS011;11628;51.072;3.712;2023-05-23T00:33:23;52.05;;;28.98;;
22924;SDS011;11628;51.072;3.712;2023-05-23T00:35:49;47.40;;;28.15;;
22924;SDS011;11628;51.072;3.712;2023-05-23T00:38:15;45.05;;;28.77;;
22924;SDS011;11628;51.072;3.712;2023-05-23T00:40:41;46.38;;;31.33;;
22924;SDS011;11628;51.072;3.712;2023-05-23T00:43:07;47.47;;;31.98;;
22924;SDS011;11628;51.072;3.712;2023-05-23T00:45:33;41.10;;;26.48;;
22924;SDS011;11628;51.072;3.712;2023-05-23T00:47:59;37.75;;;23.20;;
22924;SDS011;11628;51.072;3.712;2023-05-23T00:50:25;35.10;;;21.30;;
22924;SDS011;11628;51.072;3.712;2023-05-23T00:52:55;33.38;;;20.27;;
22924;SDS011;11628;51.072;3.712;2023-05-23T00:55:23;34.45;;;20.05;;
22924;SDS011;11628;51.072;3.712;2023-05-23T00:57:50;30.65;;;19.58;;
22924;SDS011;11628;51.072;3.712;2023-05-23T01:00:19;35.08;;;19.95;;
22924;SDS011;11628;51.072;3.712;2023-05-23T01:02:46;34.00;;;20.73;;
22924;SDS011;11628;51.072;3.712;2023-05-23T01:05:16;36.63;;;21.08;;
22924;SDS011;11628;51.072;3.712;2023-05-23T01:07:45;38.75;;;21.73;;
22924;SDS011;11628;51.072;3.712;2023-05-23T01:10:12;34.80;;;20.83;;
22924;SDS011;11628;51.072;3.712;2023-05-23T01:12:42;39.40;;;21.38;;
22924;SDS011;11628;51.072;3.712;2023-05-23T01:15:19;38.00;;;21.38;;
22924;SDS011;11628;51.072;3.712;2023-05-23T01:20:56;40.10;;;21.05;;
22924;SDS011;11628;51.072;3.712;2023-05-23T01:23:10;34.13;;;20.02;;
22924;SDS011;11628;51.072;3.712;2023-05-23T01:28:24;36.17;;;19.98;;
22924;SDS011;11628;51.072;3.712;2023-05-23T01:30:56;33.03;;;20.55;;
22924;SDS011;11628;51.072;3.712;2023-05-23T01:33:23;30.23;;;21.23;;
22924;SDS011;11628;51.072;3.712;2023-05-23T01:35:49;34.70;;;21.20;;
22924;SDS011;11628;51.072;3.712;2023-05-23T01:38:16;35.28;;;21.25;;
22924;SDS011;11628;51.072;3.712;2023-05-23T01:40:41;36.17;;;21.25;;
22924;SDS011;11628;51.072;3.712;2023-05-23T01:43:07;31.42;;;20.35;;
22924;SDS011;11628;51.072;3.712;2023-05-23T01:45:33;37.17;;;21.27;;
22924;SDS011;11628;51.072;3.712;2023-05-23T01:47:59;37.13;;;19.88;;
22924;SDS011;11628;51.072;3.712;2023-05-23T01:50:27;36.60;;;20.17;;
22924;SDS011;11628;51.072;3.712;2023-05-23T01:52:53;32.13;;;19.13;;
22924;SDS011;11628;51.072;3.712;2023-05-23T01:55:20;37.20;;;18.35;;
22924;SDS011;11628;51.072;3.712;2023-05-23T01:57:52;36.33;;;19.33;;
22924;SDS011;11628;51.072;3.712;2023-05-23T02:00:21;40.87;;;20.17;;
22924;SDS011;11628;51.072;3.712;2023-05-23T02:02:48;41.70;;;21.27;;
22924;SDS011;11628;51.072;3.712;2023-05-23T02:05:14;39.20;;;21.90;;
22924;SDS011;11628;51.072;3.712;2023-05-23T02:07:40;33.78;;;22.13;;
22924;SDS011;11628;51.072;3.712;2023-05-23T02:10:08;38.75;;;23.75;;
22924;SDS011;11628;51.072;3.712;2023-05-23T02:12:34;43.78;;;24.25;;
22924;SDS011;11628;51.072;3.712;2023-05-23T02:15:00;37.05;;;23.30;;
22924;SDS011;11628;51.072;3.712;2023-05-23T02:17:26;41.70;;;23.35;;
22924;SDS011;11628;51.072;3.712;2023-05-23T02:19:51;40.50;;;24.00;;
22924;SDS011;11628;51.072;3.712;2023-05-23T02:22:17;42.72;;;24.98;;
22924;SDS011;11628;51.072;3.712;2023-05-23T02:24:48;37.50;;;25.33;;
22924;SDS011;11628;51.072;3.712;2023-05-23T02:27:14;46.60;;;26.35;;
22924;SDS011;11628;51.072;3.712;2023-05-23T02:29:39;38.78;;;26.00;;
22924;SDS011;11628;51.072;3.712;2023-05-23T02:32:05;42.35;;;25.13;;
22924;SDS011;11628;51.072;3.712;2023-05-23T02:34:31;39.08;;;23.05;;
22924;SDS011;11628;51.072;3.712;2023-05-23T02:36:56;38.22;;;22.55;;
22924;SDS011;11628;51.072;3.712;2023-05-23T02:39:22;35.92;;;22.25;;
22924;SDS011;11628;51.072;3.712;2023-05-23T02:41:48;33.42;;;21.08;;
22924;SDS011;11628;51.072;3.712;2023-05-23T02:44:14;33.22;;;19.48;;
22924;SDS011;11628;51.072;3.712;2023-05-23T02:46:39;30.35;;;19.73;;
22924;SDS011;11628;51.072;3.712;2023-05-23T02:49:05;34.42;;;20.17;;
22924;SDS011;11628;51.072;3.712;2023-05-23T02:51:31;34.03;;;20.33;;
22924;SDS011;11628;51.072;3.712;2023-05-23T02:53:56;36.95;;;22.88;;
22924;SDS011;11628;51.072;3.712;2023-05-23T02:56:22;33.63;;;24.35;;
22924;SDS011;11628;51.072;3.712;2023-05-23T02:58:48;38.30;;;24.67;;
22924;SDS011;11628;51.072;3.712;2023-05-23T03:01:13;39.33;;;24.67;;
22924;SDS011;11628;51.072;3.712;2023-05-23T03:03:40;39.88;;;22.65;;
22924;SDS011;11628;51.072;3.712;2023-05-23T03:06:06;35.85;;;22.52;;
22924;SDS011;11628;51.072;3.712;2023-05-23T03:08:34;34.17;;;21.27;;
22924;SDS011;11628;51.072;3.712;2023-05-23T03:11:00;33.30;;;20.30;;
22924;SDS011;11628;51.072;3.712;2023-05-23T03:13:27;33.33;;;20.15;;
22924;SDS011;11628;51.072;3.712;2023-05-23T03:15:52;32.95;;;20.45;;
22924;SDS011;11628;51.072;3.712;2023-05-23T03:18:18;30.83;;;18.55;;
22924;SDS011;11628;51.072;3.712;2023-05-23T03:20:44;31.77;;;19.95;;
22924;SDS011;11628;51.072;3.712;2023-05-23T03:23:10;38.05;;;21.85;;
22924;SDS011;11628;51.072;3.712;2023-05-23T03:25:35;31.50;;;20.20;;
22924;SDS011;11628;51.072;3.712;2023-05-23T03:28:01;34.67;;;19.60;;
22924;SDS011;11628;51.072;3.712;2023-05-23T03:30:26;33.08;;;19.17;;
22924;SDS011;11628;51.072;3.712;2023-05-23T03:32:52;30.23;;;18.80;;
22924;SDS011;11628;51.072;3.712;2023-05-23T03:35:18;30.08;;;17.77;;
22924;SDS011;11628;51.072;3.712;2023-05-23T03:37:43;32.90;;;18.80;;
22924;SDS011;11628;51.072;3.712;2023-05-23T03:40:09;27.83;;;18.85;;
22924;SDS011;11628;51.072;3.712;2023-05-23T03:42:35;34.33;;;19.60;;
22924;SDS011;11628;51.072;3.712;2023-05-23T03:45:02;35.50;;;20.05;;
22924;SDS011;11628;51.072;3.712;2023-05-23T03:47:29;33.00;;;19.20;;
22924;SDS011;11628;51.072;3.712;2023-05-23T03:49:54;27.98;;;17.23;;
22924;SDS011;11628;51.072;3.712;2023-05-23T03:52:20;31.40;;;17.60;;
22924;SDS011;11628;51.072;3.712;2023-05-23T03:54:46;29.98;;;15.85;;
22924;SDS011;11628;51.072;3.712;2023-05-23T03:57:11;26.63;;;14.50;;
22924;SDS011;11628;51.072;3.712;2023-05-23T03:59:37;29.65;;;13.35;;
22924;SDS011;11628;51.072;3.712;2023-05-23T04:02:03;26.88;;;12.68;;
22924;SDS011;11628;51.072;3.712;2023-05-23T04:04:29;39.75;;;14.98;;
22924;SDS011;11628;51.072;3.712;2023-05-23T04:06:55;29.63;;;13.30;;
22924;SDS011;11628;51.072;3.712;2023-05-23T04:09:22;38.97;;;14.50;;
22924;SDS011;11628;51.072;3.712;2023-05-23T04:11:47;28.80;;;13.73;;
22924;SDS011;11628;51.072;3.712;2023-05-23T04:14:13;31.65;;;14.05;;
22924;SDS011;11628;51.072;3.712;2023-05-23T04:16:39;31.20;;;14.35;;
22924;SDS011;11628;51.072;3.712;2023-05-23T04:19:08;35.75;;;15.07;;
22924;SDS011;11628;51.072;3.712;2023-05-23T04:21:34;36.35;;;14.07;;
22924;SDS011;11628;51.072;3.712;2023-05-23T04:24:00;31.70;;;13.40;;
22924;SDS011;11628;51.072;3.712;2023-05-23T04:26:27;38.92;;;14.65;;
22924;SDS011;11628;51.072;3.712;2023-05-23T04:28:52;27.80;;;13.48;;
22924;SDS011;11628;51.072;3.712;2023-05-23T04:31:21;34.97;;;13.82;;
22924;SDS011;11628;51.072;3.712;2023-05-23T04:33:47;39.00;;;13.93;;
22924;SDS011;11628;51.072;3.712;2023-05-23T04:36:13;31.45;;;12.20;;
22924;SDS011;11628;51.072;3.712;2023-05-23T04:38:39;29.30;;;11.68;;
22924;SDS011;11628;51.072;3.712;2023-05-23T04:41:05;38.60;;;11.52;;
22924;SDS011;11628;51.072;3.712;2023-05-23T04:43:34;31.92;;;12.73;;
22924;SDS011;11628;51.072;3.712;2023-05-23T04:46:06;26.88;;;11.60;;
22924;SDS011;11628;51.072;3.712;2023-05-23T04:48:35;35.33;;;10.98;;
22924;SDS011;11628;51.072;3.712;2023-05-23T04:51:02;31.20;;;11.70;;
22924;SDS011;11628;51.072;3.712;2023-05-23T04:53:33;42.85;;;13.60;;
22924;SDS011;11628;51.072;3.712;2023-05-23T04:56:00;32.88;;;12.90;;
22924;SDS011;11628;51.072;3.712;2023-05-23T04:58:26;31.92;;;12.75;;
22924;SDS011;11628;51.072;3.712;2023-05-23T05:00:52;31.17;;;13.00;;
22924;SDS011;11628;51.072;3.712;2023-05-23T05:03:18;32.75;;;14.25;;
22924;SDS011;11628;51.072;3.712;2023-05-23T05:05:43;31.80;;;14.32;;
22924;SDS011;11628;51.072;3.712;2023-05-23T05:08:09;32.55;;;14.30;;
22924;SDS011;11628;51.072;3.712;2023-05-23T05:10:35;35.28;;;13.68;;
22924;SDS011;11628;51.072;3.712;2023-05-23T05:13:02;28.50;;;12.88;;
22924;SDS011;11628;51.072;3.712;2023-05-23T05:15:27;28.83;;;12.85;;
22924;SDS011;11628;51.072;3.712;2023-05-23T05:17:53;25.50;;;13.45;;
22924;SDS011;11628;51.072;3.712;2023-05-23T05:20:19;28.85;;;13.77;;
22924;SDS011;11628;51.072;3.712;2023-05-23T05:22:46;23.45;;;13.07;;
22924;SDS011;11628;51.072;3.712;2023-05-23T05:25:11;23.10;;;13.55;;
22924;SDS011;11628;51.072;3.712;2023-05-23T05:27:38;29.95;;;12.30;;
22924;SDS011;11628;51.072;3.712;2023-05-23T05:30:07;27.02;;;12.40;;
22924;SDS011;11628;51.072;3.712;2023-05-23T05:32:34;21.05;;;10.75;;
22924;SDS011;11628;51.072;3.712;2023-05-23T05:35:00;19.30;;;10.20;;
22924;SDS011;11628;51.072;3.712;2023-05-23T05:37:26;18.25;;;9.95;;
22924;SDS011;11628;51.072;3.712;2023-05-23T05:39:53;21.50;;;9.27;;
22924;SDS011;11628;51.072;3.712;2023-05-23T05:42:20;19.88;;;9.45;;
22924;SDS011;11628;51.072;3.712;2023-05-23T05:44:47;23.17;;;10.60;;
22924;SDS011;11628;51.072;3.712;2023-05-23T05:47:13;50.55;;;14.93;;
22924;SDS011;11628;51.072;3.712;2023-05-23T05:49:39;36.33;;;11.05;;
22924;SDS011;11628;51.072;3.712;2023-05-23T05:52:06;24.10;;;10.27;;
22924;SDS011;11628;51.072;3.712;2023-05-23T05:54:32;16.98;;;9.93;;
22924;SDS011;11628;51.072;3.712;2023-05-23T05:56:58;18.42;;;9.63;;
22924;SDS011;11628;51.072;3.712;2023-05-23T05:59:24;19.45;;;9.52;;
22924;SDS011;11628;51.072;3.712;2023-05-23T06:01:50;24.67;;;10.23;;
22924;SDS011;11628;51.072;3.712;2023-05-23T06:04:16;22.42;;;9.00;;
22924;SDS011;11628;51.072;3.712;2023-05-23T06:06:42;20.30;;;8.68;;
22924;SDS011;11628;51.072;3.712;2023-05-23T06:09:08;20.52;;;9.32;;
22924;SDS011;11628;51.072;3.712;2023-05-23T06:11:34;25.77;;;11.75;;
22924;SDS011;11628;51.072;3.712;2023-05-23T06:14:04;19.55;;;9.65;;
22924;SDS011;11628;51.072;3.712;2023-05-23T06:16:33;23.60;;;9.98;;
22924;SDS011;11628;51.072;3.712;2023-05-23T06:18:59;34.10;;;8.98;;
22924;SDS011;11628;51.072;3.712;2023-05-23T06:21:25;23.52;;;9.88;;
22924;SDS011;11628;51.072;3.712;2023-05-23T06:23:51;24.73;;;10.98;;
22924;SDS011;11628;51.072;3.712;2023-05-23T06:26:17;20.58;;;9.32;;
22924;SDS011;11628;51.072;3.712;2023-05-23T06:28:42;23.85;;;9.93;;
22924;SDS011;11628;51.072;3.712;2023-05-23T06:31:09;19.70;;;9.73;;
22924;SDS011;11628;51.072;3.712;2023-05-23T06:33:34;21.52;;;9.63;;
22924;SDS011;11628;51.072;3.712;2023-05-23T06:36:00;23.13;;;10.02;;
22924;SDS011;11628;51.072;3.712;2023-05-23T06:38:28;22.17;;;9.93;;
22924;SDS011;11628;51.072;3.712;2023-05-23T06:40:55;19.90;;;9.80;;
22924;SDS011;11628;51.072;3.712;2023-05-23T06:43:21;23.08;;;10.15;;
22924;SDS011;11628;51.072;3.712;2023-05-23T06:45:46;21.52;;;9.40;;
22924;SDS011;11628;51.072;3.712;2023-05-23T06:48:12;18.92;;;8.57;;
22924;SDS011;11628;51.072;3.712;2023-05-23T06:50:39;17.73;;;9.27;;
22924;SDS011;11628;51.072;3.712;2023-05-23T06:53:05;19.67;;;9.07;;
22924;SDS011;11628;51.072;3.712;2023-05-23T06:55:31;23.60;;;10.70;;
22924;SDS011;11628;51.072;3.712;2023-05-23T06:57:58;18.02;;;9.07;;
22924;SDS011;11628;51.072;3.712;2023-05-23T07:00:24;19.13;;;9.93;;
22924;SDS011;11628;51.072;3.712;2023-05-23T07:02:50;19.50;;;9.38;;
22924;SDS011;11628;51.072;3.712;2023-05-23T07:05:15;19.90;;;9.50;;
22924;SDS011;11628;51.072;3.712;2023-05-23T07:07:41;23.25;;;14.23;;
22924;SDS011;11628;51.072;3.712;2023-05-23T07:10:07;26.90;;;10.60;;
22924;SDS011;11628;51.072;3.712;2023-05-23T07:12:34;18.83;;;10.38;;
22924;SDS011;11628;51.072;3.712;2023-05-23T07:15:00;17.38;;;8.85;;
22924;SDS011;11628;51.072;3.712;2023-05-23T07:17:26;14.25;;;8.30;;
22924;SDS011;11628;51.072;3.712;2023-05-23T07:19:54;17.40;;;6.70;;
22924;SDS011;11628;51.072;3.712;2023-05-23T07:22:20;14.63;;;6.88;;
22924;SDS011;11628;51.072;3.712;2023-05-23T07:24:46;16.10;;;7.57;;
22924;SDS011;11628;51.072;3.712;2023-05-23T07:27:11;15.50;;;6.68;;
22924;SDS011;11628;51.072;3.712;2023-05-23T07:29:37;15.30;;;7.13;;
22924;SDS011;11628;51.072;3.712;2023-05-23T07:32:03;17.17;;;7.90;;
22924;SDS011;11628;51.072;3.712;2023-05-23T07:34:30;16.60;;;8.95;;
22924;SDS011;11628;51.072;3.712;2023-05-23T07:36:55;16.38;;;7.50;;
22924;SDS011;11628;51.072;3.712;2023-05-23T07:39:21;18.33;;;7.47;;
22924;SDS011;11628;51.072;3.712;2023-05-23T07:41:48;19.17;;;8.45;;
22924;SDS011;11628;51.072;3.712;2023-05-23T07:44:14;21.95;;;8.40;;
22924;SDS011;11628;51.072;3.712;2023-05-23T07:46:42;23.70;;;10.15;;
22924;SDS011;11628;51.072;3.712;2023-05-23T07:49:07;24.00;;;9.95;;
22924;SDS011;11628;51.072;3.712;2023-05-23T07:51:33;18.63;;;8.48;;
22924;SDS011;11628;51.072;3.712;2023-05-23T07:53:59;15.63;;;7.57;;
22924;SDS011;11628;51.072;3.712;2023-05-23T07:56:25;16.33;;;7.93;;
22924;SDS011;11628;51.072;3.712;2023-05-23T07:58:51;18.00;;;8.32;;
22924;SDS011;11628;51.072;3.712;2023-05-23T08:01:16;18.77;;;7.93;;
22924;SDS011;11628;51.072;3.712;2023-05-23T08:03:42;16.48;;;7.22;;
22924;SDS011;11628;51.072;3.712;2023-05-23T08:06:08;16.90;;;6.80;;
22924;SDS011;11628;51.072;3.712;2023-05-23T08:08:34;16.83;;;7.05;;
22924;SDS011;11628;51.072;3.712;2023-05-23T08:11:00;17.30;;;4.97;;
22924;SDS011;11628;51.072;3.712;2023-05-23T08:13:26;10.88;;;4.38;;
22924;SDS011;11628;51.072;3.712;2023-05-23T08:15:52;8.48;;;3.40;;
22924;SDS011;11628;51.072;3.712;2023-05-23T08:18:18;9.48;;;3.10;;
22924;SDS011;11628;51.072;3.712;2023-05-23T08:20:44;10.07;;;3.65;;
22924;SDS011;11628;51.072;3.712;2023-05-23T08:23:10;10.45;;;3.60;;
22924;SDS011;11628;51.072;3.712;2023-05-23T08:25:37;8.43;;;2.92;;
22924;SDS011;11628;51.072;3.712;2023-05-23T08:28:03;8.05;;;2.92;;
22924;SDS011;11628;51.072;3.712;2023-05-23T08:30:30;8.75;;;2.70;;
22924;SDS011;11628;51.072;3.712;2023-05-23T08:32:57;8.93;;;2.80;;
22924;SDS011;11628;51.072;3.712;2023-05-23T08:35:24;7.40;;;3.08;;
22924;SDS011;11628;51.072;3.712;2023-05-23T08:37:53;9.35;;;3.55;;
22924;SDS011;11628;51.072;3.712;2023-05-23T08:40:20;10.18;;;3.10;;
22924;SDS011;11628;51.072;3.712;2023-05-23T08:42:46;10.00;;;3.20;;
22924;SDS011;11628;51.072;3.712;2023-05-23T08:45:13;9.15;;;2.90;;
22924;SDS011;11628;51.072;3.712;2023-05-23T08:47:41;12.52;;;6.95;;
22924;SDS011;11628;51.072;3.712;2023-05-23T08:50:17;10.18;;;2.65;;
22924;SDS011;11628;51.072;3.712;2023-05-23T08:52:56;10.48;;;3.25;;
22924;SDS011;11628;51.072;3.712;2023-05-23T08:55:23;9.48;;;2.53;;
22924;SDS011;11628;51.072;3.712;2023-05-23T08:57:56;9.20;;;2.60;;
22924;SDS011;11628;51.072;3.712;2023-05-23T09:00:26;10.88;;;3.05;;
22924;SDS011;11628;51.072;3.712;2023-05-23T09:02:52;9.98;;;3.22;;
22924;SDS011;11628;51.072;3.712;2023-05-23T09:05:19;9.82;;;2.40;;
22924;SDS011;11628;51.072;3.712;2023-05-23T09:07:45;9.63;;;2.85;;
22924;SDS011;11628;51.072;3.712;2023-05-23T09:10:13;12.63;;;2.65;;
22924;SDS011;11628;51.072;3.712;2023-05-23T09:12:44;11.68;;;3.08;;
22924;SDS011;11628;51.072;3.712;2023-05-23T09:15:10;12.77;;;3.08;;
22924;SDS011;11628;51.072;3.712;2023-05-23T09:17:36;8.13;;;2.30;;
22924;SDS011;11628;51.072;3.712;2023-05-23T09:20:03;17.25;;;3.70;;
22924;SDS011;11628;51.072;3.712;2023-05-23T09:22:36;10.93;;;2.35;;
22924;SDS011;11628;51.072;3.712;2023-05-23T09:25:02;9.15;;;2.78;;
22924;SDS011;11628;51.072;3.712;2023-05-23T09:27:29;12.05;;;3.13;;
22924;SDS011;11628;51.072;3.712;2023-05-23T09:29:55;14.40;;;3.65;;
22924;SDS011;11628;51.072;3.712;2023-05-23T09:32:21;13.20;;;3.30;;
22924;SDS011;11628;51.072;3.712;2023-05-23T09:34:57;14.80;;;3.70;;
22924;SDS011;11628;51.072;3.712;2023-05-23T09:37:28;14.88;;;3.45;;
22924;SDS011;11628;51.072;3.712;2023-05-23T09:39:53;15.57;;;3.63;;
22924;SDS011;11628;51.072;3.712;2023-05-23T09:42:20;15.27;;;3.70;;
22924;SDS011;11628;51.072;3.712;2023-05-23T09:44:49;12.68;;;3.58;;
22924;SDS011;11628;51.072;3.712;2023-05-23T09:47:15;13.73;;;3.08;;
22924;SDS011;11628;51.072;3.712;2023-05-23T09:49:44;15.60;;;3.17;;
22924;SDS011;11628;51.072;3.712;2023-05-23T09:52:11;13.77;;;3.40;;
22924;SDS011;11628;51.072;3.712;2023-05-23T09:54:37;11.15;;;3.20;;
22924;SDS011;11628;51.072;3.712;2023-05-23T09:57:04;14.05;;;3.20;;
22924;SDS011;11628;51.072;3.712;2023-05-23T09:59:35;11.43;;;3.20;;
22924;SDS011;11628;51.072;3.712;2023-05-23T10:02:04;18.25;;;4.38;;
22924;SDS011;11628;51.072;3.712;2023-05-23T10:04:41;17.42;;;3.90;;
22924;SDS011;11628;51.072;3.712;2023-05-23T10:07:17;16.08;;;4.18;;
22924;SDS011;11628;51.072;3.712;2023-05-23T10:09:47;17.65;;;4.30;;
22924;SDS011;11628;51.072;3.712;2023-05-23T10:12:43;17.98;;;5.47;;
22924;SDS011;11628;51.072;3.712;2023-05-23T10:15:14;18.20;;;3.53;;
22924;SDS011;11628;51.072;3.712;2023-05-23T10:20:28;12.50;;;3.10;;
22924;SDS011;11628;51.072;3.712;2023-05-23T10:23:01;16.05;;;3.53;;
22924;SDS011;11628;51.072;3.712;2023-05-23T10:25:27;14.25;;;3.53;;
22924;SDS011;11628;51.072;3.712;2023-05-23T10:27:57;15.70;;;3.42;;
22924;SDS011;11628;51.072;3.712;2023-05-23T10:30:26;15.88;;;3.70;;
22924;SDS011;11628;51.072;3.712;2023-05-23T10:32:53;16.73;;;4.32;;
22924;SDS011;11628;51.072;3.712;2023-05-23T10:35:26;14.07;;;3.97;;
22924;SDS011;11628;51.072;3.712;2023-05-23T10:46:42;16.98;;;4.22;;
22924;SDS011;11628;51.072;3.712;2023-05-23T10:49:16;13.73;;;3.25;;
22924;SDS011;11628;51.072;3.712;2023-05-23T10:51:42;16.75;;;4.20;;
22924;SDS011;11628;51.072;3.712;2023-05-23T10:54:10;14.13;;;3.85;;
22924;SDS011;11628;51.072;3.712;2023-05-23T10:56:36;16.40;;;3.30;;
22924;SDS011;11628;51.072;3.712;2023-05-23T10:59:04;13.20;;;3.63;;
22924;SDS011;11628;51.072;3.712;2023-05-23T11:01:30;14.98;;;4.22;;
22924;SDS011;11628;51.072;3.712;2023-05-23T11:03:56;13.05;;;3.55;;
22924;SDS011;11628;51.072;3.712;2023-05-23T11:06:36;17.65;;;4.10;;
22924;SDS011;11628;51.072;3.712;2023-05-23T11:14:15;9.63;;;3.33;;
22924;SDS011;11628;51.072;3.712;2023-05-23T11:16:41;12.40;;;3.17;;
22924;SDS011;11628;51.072;3.712;2023-05-23T11:19:20;13.20;;;3.83;;
22924;SDS011;11628;51.072;3.712;2023-05-23T11:21:51;10.73;;;2.92;;
22924;SDS011;11628;51.072;3.712;2023-05-23T11:24:21;12.93;;;4.35;;
22924;SDS011;11628;51.072;3.712;2023-05-23T11:26:56;12.98;;;3.47;;
22924;SDS011;11628;51.072;3.712;2023-05-23T11:29:29;10.25;;;3.30;;
22924;SDS011;11628;51.072;3.712;2023-05-23T11:31:55;13.88;;;3.10;;
22924;SDS011;11628;51.072;3.712;2023-05-23T11:34:22;16.92;;;3.80;;
22924;SDS011;11628;51.072;3.712;2023-05-23T11:36:54;14.32;;;3.30;;
22924;SDS011;11628;51.072;3.712;2023-05-23T11:39:20;13.23;;;3.25;;
22924;SDS011;11628;51.072;3.712;2023-05-23T11:41:57;12.68;;;3.70;;
22924;SDS011;11628;51.072;3.712;2023-05-23T11:44:26;25.23;;;11.23;;
22924;SDS011;11628;51.072;3.712;2023-05-23T11:47:02;18.65;;;4.32;;
22924;SDS011;11628;51.072;3.712;2023-05-23T11:49:35;14.90;;;4.22;;
22924;SDS011;11628;51.072;3.712;2023-05-23T11:52:02;13.82;;;4.05;;
22924;SDS011;11628;51.072;3.712;2023-05-23T11:54:30;13.00;;;3.17;;
22924;SDS011;11628;51.072;3.712;2023-05-23T11:56:56;13.77;;;3.60;;
22924;SDS011;11628;51.072;3.712;2023-05-23T11:59:22;12.50;;;4.35;;
22924;SDS011;11628;51.072;3.712;2023-05-23T12:01:50;19.15;;;7.75;;
22924;SDS011;11628;51.072;3.712;2023-05-23T12:04:16;13.02;;;4.47;;
22924;SDS011;11628;51.072;3.712;2023-05-23T12:06:45;16.05;;;3.67;;
22924;SDS011;11628;51.072;3.712;2023-05-23T12:09:12;11.43;;;3.08;;
22924;SDS011;11628;51.072;3.712;2023-05-23T12:11:39;11.27;;;3.38;;
22924;SDS011;11628;51.072;3.712;2023-05-23T12:14:06;15.73;;;3.22;;
22924;SDS011;11628;51.072;3.712;2023-05-23T12:16:32;10.77;;;3.10;;
22924;SDS011;11628;51.072;3.712;2023-05-23T12:18:59;33.45;;;21.55;;
22924;SDS011;11628;51.072;3.712;2023-05-23T12:21:31;13.43;;;4.65;;
22924;SDS011;11628;51.072;3.712;2023-05-23T12:24:12;9.75;;;2.53;;
22924;SDS011;11628;51.072;3.712;2023-05-23T12:27:12;12.27;;;3.30;;
22924;SDS011;11628;51.072;3.712;2023-05-23T12:29:32;8.82;;;2.72;;
22924;SDS011;11628;51.072;3.712;2023-05-23T12:31:59;12.15;;;3.58;;
22924;SDS011;11628;51.072;3.712;2023-05-23T12:34:26;13.15;;;2.75;;
22924;SDS011;11628;51.072;3.712;2023-05-23T12:36:56;14.02;;;3.38;;
22924;SDS011;11628;51.072;3.712;2023-05-23T12:39:26;11.90;;;3.33;;
22924;SDS011;11628;51.072;3.712;2023-05-23T12:41:52;14.27;;;3.60;;
22924;SDS011;11628;51.072;3.712;2023-05-23T12:44:22;11.80;;;3.50;;
22924;SDS011;11628;51.072;3.712;2023-05-23T12:46:48;12.93;;;3.30;;
22924;SDS011;11628;51.072;3.712;2023-05-23T12:49:14;11.70;;;3.08;;
22924;SDS011;11628;51.072;3.712;2023-05-23T12:51:40;12.43;;;4.15;;
22924;SDS011;11628;51.072;3.712;2023-05-23T12:54:07;12.07;;;3.90;;
22924;SDS011;11628;51.072;3.712;2023-05-23T12:56:33;10.27;;;3.42;;
22924;SDS011;11628;51.072;3.712;2023-05-23T12:58:58;9.00;;;2.85;;
22924;SDS011;11628;51.072;3.712;2023-05-23T13:01:26;7.32;;;2.50;;
22924;SDS011;11628;51.072;3.712;2023-05-23T13:03:52;10.48;;;3.25;;
22924;SDS011;11628;51.072;3.712;2023-05-23T13:06:17;11.63;;;3.10;;
22924;SDS011;11628;51.072;3.712;2023-05-23T13:08:43;10.68;;;3.50;;
22924;SDS011;11628;51.072;3.712;2023-05-23T13:11:09;12.77;;;3.20;;
22924;SDS011;11628;51.072;3.712;2023-05-23T13:13:35;11.65;;;3.88;;
22924;SDS011;11628;51.072;3.712;2023-05-23T13:16:01;11.35;;;3.72;;
22924;SDS011;11628;51.072;3.712;2023-05-23T13:18:26;11.02;;;3.00;;
22924;SDS011;11628;51.072;3.712;2023-05-23T13:20:52;9.77;;;2.90;;
22924;SDS011;11628;51.072;3.712;2023-05-23T13:23:18;11.93;;;2.70;;
22924;SDS011;11628;51.072;3.712;2023-05-23T13:25:44;14.30;;;3.88;;
22924;SDS011;11628;51.072;3.712;2023-05-23T13:28:10;11.07;;;3.53;;
22924;SDS011;11628;51.072;3.712;2023-05-23T13:30:35;9.38;;;2.70;;
22924;SDS011;11628;51.072;3.712;2023-05-23T13:33:01;12.18;;;2.78;;
22924;SDS011;11628;51.072;3.712;2023-05-23T13:35:27;10.70;;;2.83;;
22924;SDS011;11628;51.072;3.712;2023-05-23T13:37:53;10.20;;;2.85;;
22924;SDS011;11628;51.072;3.712;2023-05-23T13:40:19;12.30;;;3.42;;
22924;SDS011;11628;51.072;3.712;2023-05-23T13:42:46;9.18;;;2.65;;
22924;SDS011;11628;51.072;3.712;2023-05-23T13:45:14;12.27;;;3.40;;
22924;SDS011;11628;51.072;3.712;2023-05-23T13:47:41;11.02;;;3.00;;
22924;SDS011;11628;51.072;3.712;2023-05-23T13:50:08;11.60;;;3.35;;
22924;SDS011;11628;51.072;3.712;2023-05-23T13:52:34;9.82;;;3.10;;
22924;SDS011;11628;51.072;3.712;2023-05-23T13:55:00;12.93;;;3.00;;
22924;SDS011;11628;51.072;3.712;2023-05-23T13:57:26;10.88;;;3.00;;
22924;SDS011;11628;51.072;3.712;2023-05-23T13:59:52;11.60;;;2.78;;
22924;SDS011;11628;51.072;3.712;2023-05-23T14:02:17;10.77;;;3.15;;
22924;SDS011;11628;51.072;3.712;2023-05-23T14:04:43;10.25;;;3.13;;
22924;SDS011;11628;51.072;3.712;2023-05-23T14:07:09;11.85;;;3.28;;
22924;SDS011;11628;51.072;3.712;2023-05-23T14:09:35;12.05;;;3.55;;
22924;SDS011;11628;51.072;3.712;2023-05-23T14:12:01;9.40;;;2.50;;
22924;SDS011;11628;51.072;3.712;2023-05-23T14:14:26;8.18;;;2.70;;
22924;SDS011;11628;51.072;3.712;2023-05-23T14:16:52;12.15;;;2.67;;
22924;SDS011;11628;51.072;3.712;2023-05-23T14:19:18;9.57;;;2.80;;
22924;SDS011;11628;51.072;3.712;2023-05-23T14:21:44;8.98;;;2.22;;
22924;SDS011;11628;51.072;3.712;2023-05-23T14:24:10;8.82;;;2.78;;
22924;SDS011;11628;51.072;3.712;2023-05-23T14:26:36;12.32;;;3.35;;
22924;SDS011;11628;51.072;3.712;2023-05-23T14:29:01;10.05;;;2.47;;
22924;SDS011;11628;51.072;3.712;2023-05-23T14:31:28;9.07;;;2.63;;
22924;SDS011;11628;51.072;3.712;2023-05-23T14:33:53;9.27;;;2.35;;
22924;SDS011;11628;51.072;3.712;2023-05-23T14:36:19;7.15;;;2.47;;
22924;SDS011;11628;51.072;3.712;2023-05-23T14:38:45;11.25;;;2.30;;
22924;SDS011;11628;51.072;3.712;2023-05-23T14:41:13;10.32;;;2.90;;
22924;SDS011;11628;51.072;3.712;2023-05-23T14:43:39;8.35;;;2.80;;
22924;SDS011;11628;51.072;3.712;2023-05-23T14:46:05;10.73;;;2.78;;
22924;SDS011;11628;51.072;3.712;2023-05-23T14:48:30;9.05;;;2.25;;
22924;SDS011;11628;51.072;3.712;2023-05-23T14:50:56;10.65;;;3.47;;
22924;SDS011;11628;51.072;3.712;2023-05-23T14:53:25;9.50;;;2.42;;